createdAt,value
2018-09-05T00:02:14.856Z,16.20
2018-09-05T00:04:44.274Z,16.23
2018-09-05T00:07:13.672Z,16.19
2018-09-05T00:09:43.075Z,16.15
2018-09-05T00:12:12.437Z,16.03
2018-09-05T00:14:41.905Z,16.03
2018-09-05T00:17:11.251Z,16.00
2018-09-05T00:19:40.736Z,15.92
2018-09-05T00:22:10.070Z,15.92
2018-09-05T00:24:39.644Z,15.88
2018-09-05T00:27:09.011Z,15.85
2018-09-05T00:29:38.402Z,15.82
2018-09-05T00:32:07.798Z,15.81
2018-09-05T00:34:37.181Z,15.78
2018-09-05T00:37:06.634Z,15.77
2018-09-05T00:39:35.997Z,15.79
2018-09-05T00:42:05.463Z,15.71
2018-09-05T00:44:34.836Z,15.67
2018-09-05T00:47:04.246Z,15.66
2018-09-05T00:49:33.632Z,15.65
2018-09-05T00:52:03.047Z,15.58
2018-09-05T00:54:32.421Z,15.54
2018-09-05T00:57:01.827Z,15.54
2018-09-05T00:59:31.194Z,15.49
2018-09-05T01:02:00.685Z,15.46
2018-09-05T01:04:30.053Z,15.43
2018-09-05T01:06:59.474Z,15.39
2018-09-05T01:09:28.876Z,15.36
2018-09-05T01:11:58.263Z,15.36
2018-09-05T01:14:27.652Z,15.35
2018-09-05T01:16:57.032Z,15.25
2018-09-05T01:19:26.441Z,15.19
2018-09-05T01:21:55.865Z,15.16
2018-09-05T01:24:25.292Z,15.10
2018-09-05T01:26:54.659Z,15.08
2018-09-05T01:29:24.038Z,15.16
2018-09-05T01:31:53.410Z,15.15
2018-09-05T01:34:22.871Z,15.08
2018-09-05T01:36:52.253Z,15.04
2018-09-05T01:39:21.681Z,14.99
2018-09-05T01:41:51.086Z,14.97
2018-09-05T01:44:20.473Z,14.91
2018-09-05T01:46:49.850Z,14.80
2018-09-05T01:49:19.294Z,14.69
2018-09-05T01:51:48.656Z,14.70
2018-09-05T01:54:18.032Z,14.69
2018-09-05T01:56:47.489Z,14.61
2018-09-05T01:59:16.888Z,14.52
2018-09-05T02:01:46.843Z,14.50
2018-09-05T02:04:16.457Z,14.51
2018-09-05T02:06:45.932Z,14.46
2018-09-05T02:09:15.574Z,14.43
2018-09-05T02:11:45.070Z,14.45
2018-09-05T02:14:14.440Z,14.43
2018-09-05T02:16:43.986Z,14.53
2018-09-05T02:19:13.337Z,14.60
2018-09-05T02:21:42.747Z,14.54
2018-09-05T02:24:12.098Z,14.48
2018-09-05T02:26:41.564Z,14.35
2018-09-05T02:29:10.933Z,14.30
2018-09-05T02:31:40.351Z,14.22
2018-09-05T02:34:09.745Z,14.17
2018-09-05T02:36:39.163Z,14.19
2018-09-05T02:39:10.442Z,14.16
2018-09-05T02:41:40.152Z,14.16
2018-09-05T02:44:14.776Z,14.10
2018-09-05T02:46:44.130Z,14.09
2018-09-05T02:49:13.539Z,14.05
2018-09-05T02:51:42.906Z,14.05
2018-09-05T02:54:12.352Z,14.05
2018-09-05T02:56:41.723Z,14.21
2018-09-05T02:59:11.182Z,14.33
2018-09-05T03:01:40.561Z,14.37
2018-09-05T03:04:09.968Z,14.33
2018-09-05T03:06:39.342Z,14.26
2018-09-05T03:09:09.433Z,14.27
2018-09-05T03:11:38.828Z,14.06
2018-09-05T03:14:08.185Z,14.09
2018-09-05T03:16:37.608Z,13.93
2018-09-05T03:19:06.974Z,13.80
2018-09-05T03:21:36.393Z,13.77
2018-09-05T03:24:05.886Z,13.79
2018-09-05T03:26:35.334Z,13.78
2018-09-05T03:29:04.710Z,13.79
2018-09-05T03:31:34.114Z,13.69
2018-09-05T03:34:03.516Z,13.75
2018-09-05T03:36:32.919Z,13.84
2018-09-05T03:39:02.301Z,13.78
2018-09-05T03:41:31.727Z,13.73
2018-09-05T03:44:01.091Z,13.76
2018-09-05T03:46:30.555Z,13.69
2018-09-05T03:48:59.943Z,13.79
2018-09-05T03:51:29.354Z,13.81
2018-09-05T03:53:58.721Z,13.83
2018-09-05T03:56:28.140Z,13.78
2018-09-05T03:58:57.515Z,13.77
2018-09-05T04:01:27.047Z,13.52
2018-09-05T04:03:56.422Z,13.57
2018-09-05T04:06:25.849Z,13.46
2018-09-05T04:08:55.232Z,13.39
2018-09-05T04:11:24.667Z,13.42
2018-09-05T04:13:54.057Z,13.37
2018-09-05T04:16:23.459Z,13.34
2018-09-05T04:18:52.843Z,13.46
2018-09-05T04:21:22.267Z,13.42
2018-09-05T04:23:51.630Z,13.39
2018-09-05T04:26:21.100Z,13.35
2018-09-05T04:28:50.478Z,13.38
2018-09-05T04:31:19.883Z,13.34
2018-09-05T04:33:49.247Z,13.37
2018-09-05T04:36:18.666Z,13.35
2018-09-05T04:38:48.059Z,13.33
2018-09-05T04:41:17.479Z,13.25
2018-09-05T04:43:46.858Z,13.28
2018-09-05T04:46:16.284Z,13.28
2018-09-05T04:48:45.662Z,13.33
2018-09-05T04:51:15.035Z,13.35
2018-09-05T04:53:44.518Z,13.34
2018-09-05T04:56:13.899Z,13.30
2018-09-05T04:58:43.303Z,13.38
2018-09-05T05:01:12.667Z,13.38
2018-09-05T05:03:42.115Z,13.35
2018-09-05T05:06:11.458Z,13.36
2018-09-05T05:08:40.908Z,13.37
2018-09-05T05:11:10.274Z,13.42
2018-09-05T05:13:39.647Z,13.45
2018-09-05T05:16:09.114Z,13.46
2018-09-05T05:18:38.474Z,13.49
2018-09-05T05:21:07.943Z,13.51
2018-09-05T05:23:37.371Z,13.41
2018-09-05T05:26:06.836Z,13.40
2018-09-05T05:28:36.222Z,13.47
2018-09-05T05:31:05.649Z,13.52
2018-09-05T05:33:35.037Z,13.47
2018-09-05T05:36:04.851Z,13.62
2018-09-05T05:38:34.229Z,13.68
2018-09-05T05:41:03.639Z,13.80
2018-09-05T05:43:33.051Z,13.77
2018-09-05T05:46:02.457Z,13.77
2018-09-05T05:48:31.828Z,13.71
2018-09-05T05:51:01.283Z,13.77
2018-09-05T05:53:30.651Z,13.82
2018-09-05T05:56:00.193Z,13.90
2018-09-05T05:58:29.710Z,13.93
2018-09-05T06:00:59.264Z,13.97
2018-09-05T06:03:28.554Z,13.99
2018-09-05T06:05:58.031Z,14.03
2018-09-05T06:08:27.381Z,14.21
2018-09-05T06:10:56.781Z,14.20
2018-09-05T06:13:26.145Z,14.36
2018-09-05T06:15:55.523Z,14.47
2018-09-05T06:18:24.979Z,14.65
2018-09-05T06:20:54.542Z,14.77
2018-09-05T06:23:23.977Z,14.78
2018-09-05T06:25:53.362Z,14.85
2018-09-05T06:28:22.800Z,15.01
2018-09-05T06:30:52.180Z,15.16
2018-09-05T06:33:21.518Z,15.31
2018-09-05T06:35:50.874Z,15.43
2018-09-05T06:38:20.306Z,15.45
2018-09-05T06:40:49.683Z,15.50
2018-09-05T06:43:19.119Z,15.58
2018-09-05T06:45:48.494Z,15.66
2018-09-05T06:48:17.919Z,15.73
2018-09-05T06:50:47.474Z,15.79
2018-09-05T06:53:17.272Z,15.87
2018-09-05T06:55:46.658Z,16.04
2018-09-05T06:58:16.097Z,16.26
2018-09-05T07:00:45.426Z,16.41
2018-09-05T07:03:14.861Z,16.39
2018-09-05T07:05:44.254Z,16.39
2018-09-05T07:08:13.650Z,16.50
2018-09-05T07:10:43.002Z,16.63
2018-09-05T07:13:12.365Z,16.81
2018-09-05T07:15:41.758Z,16.77
2018-09-05T07:18:11.130Z,16.76
2018-09-05T07:20:40.544Z,16.81
2018-09-05T07:23:09.910Z,16.78
2018-09-05T07:25:39.361Z,17.03
2018-09-05T07:28:08.722Z,17.10
2018-09-05T07:30:38.268Z,17.13
2018-09-05T07:33:07.559Z,17.17
2018-09-05T07:35:37.040Z,17.22
2018-09-05T07:38:06.366Z,17.27
2018-09-05T07:40:39.237Z,17.56
2018-09-05T07:43:08.631Z,17.62
2018-09-05T07:45:38.068Z,17.73
2018-09-05T07:48:07.422Z,17.53
2018-09-05T07:50:36.907Z,17.44
2018-09-05T07:53:06.263Z,17.56
2018-09-05T07:55:35.701Z,17.75
2018-09-05T07:58:05.273Z,17.92
2018-09-05T08:00:34.830Z,18.16
2018-09-05T08:03:04.244Z,18.18
2018-09-05T08:05:33.575Z,18.27
2018-09-05T08:08:03.013Z,18.47
2018-09-05T08:10:32.389Z,18.44
2018-09-05T08:13:01.742Z,18.64
2018-09-05T08:15:31.187Z,18.75
2018-09-05T08:18:00.575Z,18.95
2018-09-05T08:20:30.013Z,19.19
2018-09-05T08:22:59.385Z,19.25
2018-09-05T08:25:28.872Z,19.33
2018-09-05T08:27:58.234Z,19.31
2018-09-05T08:30:27.618Z,19.19
2018-09-05T08:32:56.965Z,19.30
2018-09-05T08:35:26.592Z,19.41
2018-09-05T08:37:55.905Z,19.49
2018-09-05T08:40:25.283Z,19.74
2018-09-05T08:42:54.651Z,19.85
2018-09-05T08:45:24.227Z,19.90
2018-09-05T08:47:53.466Z,20.03
2018-09-05T08:50:22.740Z,20.02
2018-09-05T08:52:52.145Z,20.17
2018-09-05T08:55:21.621Z,20.18
2018-09-05T08:57:50.879Z,20.29
2018-09-05T09:00:20.355Z,20.52
2018-09-05T09:02:49.726Z,20.58
2018-09-05T09:05:19.149Z,20.90
2018-09-05T09:07:48.518Z,21.12
2018-09-05T09:10:17.950Z,21.26
2018-09-05T09:12:47.286Z,21.34
2018-09-05T09:15:16.756Z,21.34
2018-09-05T09:17:46.198Z,21.66
2018-09-05T09:20:15.679Z,21.49
2018-09-05T09:22:45.034Z,21.81
2018-09-05T09:25:14.461Z,21.61
2018-09-05T09:27:43.815Z,21.64
2018-09-05T09:30:13.294Z,21.81
2018-09-05T09:32:42.654Z,21.99
2018-09-05T09:35:12.083Z,22.02
2018-09-05T09:37:41.438Z,22.21
2018-09-05T09:40:10.880Z,21.99
2018-09-05T09:42:40.530Z,22.18
2018-09-05T09:45:10.017Z,22.32
2018-09-05T09:47:39.375Z,22.63
2018-09-05T09:50:08.790Z,22.74
2018-09-05T09:52:38.461Z,22.84
2018-09-05T09:55:09.494Z,22.67
2018-09-05T09:57:39.002Z,22.67
2018-09-05T10:00:09.015Z,22.50
2018-09-05T10:02:43.862Z,22.82
2018-09-05T10:05:18.669Z,23.10
2018-09-05T10:07:53.308Z,23.14
2018-09-05T10:10:27.976Z,23.30
2018-09-05T10:13:02.458Z,23.52
2018-09-05T10:15:37.178Z,23.43
2018-09-05T10:18:11.795Z,23.75
2018-09-05T10:20:41.150Z,24.45
2018-09-05T10:23:10.554Z,24.48
2018-09-05T10:25:39.918Z,24.52
2018-09-05T10:28:09.359Z,24.23
2018-09-05T10:30:38.766Z,24.51
2018-09-05T10:33:08.118Z,24.30
2018-09-05T10:35:37.581Z,24.92
2018-09-05T10:38:06.932Z,25.12
2018-09-05T10:40:36.388Z,25.21
2018-09-05T10:43:05.753Z,24.75
2018-09-05T10:45:35.173Z,24.51
2018-09-05T10:48:04.526Z,25.31
2018-09-05T10:50:33.995Z,25.32
2018-09-05T10:53:03.387Z,25.22
2018-09-05T10:55:32.782Z,25.38
2018-09-05T10:58:02.183Z,25.48
2018-09-05T11:00:31.598Z,25.37
2018-09-05T11:03:01.022Z,26.94
2018-09-05T11:05:30.398Z,27.26
2018-09-05T11:07:59.769Z,27.09
2018-09-05T11:10:29.262Z,26.69
2018-09-05T11:12:58.577Z,27.52
2018-09-05T11:15:28.011Z,27.17
2018-09-05T11:17:57.402Z,28.46
2018-09-05T11:20:26.742Z,28.81
2018-09-05T11:22:56.094Z,29.26
2018-09-05T11:25:25.518Z,28.32
2018-09-05T11:27:54.878Z,29.15
2018-09-05T11:30:24.347Z,28.72
2018-09-05T11:32:53.719Z,29.40
2018-09-05T11:35:23.110Z,28.52
2018-09-05T11:37:52.477Z,29.11
2018-09-05T11:40:21.908Z,30.23
2018-09-05T11:42:51.258Z,30.54
2018-09-05T11:45:20.614Z,30.22
2018-09-05T11:47:49.971Z,27.22
2018-09-05T11:50:19.322Z,28.31
2018-09-05T11:52:48.660Z,29.85
2018-09-05T11:55:18.034Z,30.14
2018-09-05T11:57:47.405Z,29.80
2018-09-05T12:00:16.850Z,30.08
2018-09-05T12:02:46.214Z,30.64
2018-09-05T12:05:15.651Z,29.41
2018-09-05T12:07:44.994Z,29.68
2018-09-05T12:10:14.702Z,28.84
2018-09-05T12:12:44.089Z,27.81
2018-09-05T12:15:13.488Z,29.67
2018-09-05T12:17:42.847Z,29.71
2018-09-05T12:20:12.404Z,30.34
2018-09-05T12:22:41.750Z,29.75
2018-09-05T12:25:11.554Z,30.43
2018-09-05T12:27:40.922Z,30.93
2018-09-05T12:30:10.873Z,31.63
2018-09-05T12:32:40.263Z,31.34
2018-09-05T12:35:09.750Z,31.86
2018-09-05T12:37:39.131Z,30.82
2018-09-05T12:40:08.525Z,31.07
2018-09-05T12:42:37.869Z,31.69
2018-09-05T12:45:07.347Z,30.92
2018-09-05T12:47:36.712Z,31.79
2018-09-05T12:50:06.351Z,31.85
2018-09-05T12:52:35.697Z,31.24
2018-09-05T12:55:05.350Z,31.21
2018-09-05T12:57:34.769Z,31.11
2018-09-05T13:00:04.165Z,29.41
2018-09-05T13:02:33.598Z,30.66
2018-09-05T13:05:03.007Z,29.87
2018-09-05T13:07:32.377Z,29.98
2018-09-05T13:10:01.799Z,29.58
2018-09-05T13:12:31.162Z,30.65
2018-09-05T13:15:00.610Z,31.10
2018-09-05T13:17:29.965Z,31.74
2018-09-05T13:19:59.351Z,31.86
2018-09-05T13:22:28.738Z,31.75
2018-09-05T13:24:58.191Z,32.32
2018-09-05T13:27:27.566Z,32.98
2018-09-05T13:29:56.981Z,32.98
2018-09-05T13:32:26.349Z,32.80
2018-09-05T13:34:55.785Z,30.38
2018-09-05T13:37:25.162Z,31.03
2018-09-05T13:39:54.599Z,31.16
2018-09-05T13:42:23.990Z,30.46
2018-09-05T13:44:53.389Z,32.50
2018-09-05T13:47:22.754Z,32.85
2018-09-05T13:49:52.218Z,31.47
2018-09-05T13:52:21.656Z,32.36
2018-09-05T13:54:51.204Z,33.42
2018-09-05T13:57:20.681Z,32.54
2018-09-05T13:59:50.264Z,32.70
2018-09-05T14:02:19.806Z,32.04
2018-09-05T14:04:49.243Z,31.91
2018-09-05T14:07:19.052Z,33.11
2018-09-05T14:09:49.069Z,33.14
2018-09-05T14:12:18.661Z,33.13
2018-09-05T14:14:48.084Z,32.28
2018-09-05T14:17:17.522Z,32.83
2018-09-05T14:19:47.611Z,31.80
2018-09-05T14:22:17.891Z,33.61
2018-09-05T14:24:47.355Z,32.94
2018-09-05T14:27:16.824Z,32.82
2018-09-05T14:29:46.419Z,33.21
2018-09-05T14:32:15.923Z,33.17
2018-09-05T14:34:45.512Z,32.38
2018-09-05T14:37:15.446Z,32.36
2018-09-05T14:39:44.866Z,32.34
2018-09-05T14:42:14.401Z,33.25
2018-09-05T14:44:43.818Z,32.97
2018-09-05T14:47:13.428Z,33.29
2018-09-05T14:49:42.947Z,32.41
2018-09-05T14:52:12.455Z,33.50
2018-09-05T14:54:41.908Z,32.01
2018-09-05T14:57:11.447Z,32.44
2018-09-05T14:59:41.039Z,32.72
2018-09-05T15:02:10.455Z,32.02
2018-09-05T15:04:40.003Z,29.87
2018-09-05T15:07:09.446Z,32.25
2018-09-05T15:09:38.815Z,32.54
2018-09-05T15:12:08.194Z,32.60
2018-09-05T15:14:37.595Z,32.63
2018-09-05T15:17:07.162Z,32.74
2018-09-05T15:19:36.550Z,31.81
2018-09-05T15:22:06.335Z,32.13
2018-09-05T15:24:35.694Z,31.83
2018-09-05T15:27:05.340Z,31.61
2018-09-05T15:29:35.468Z,31.68
2018-09-05T15:32:05.069Z,32.50
2018-09-05T15:34:34.471Z,33.04
2018-09-05T15:37:04.031Z,33.48
2018-09-05T15:39:33.591Z,33.10
2018-09-05T15:42:03.163Z,32.42
2018-09-05T15:44:32.617Z,31.77
2018-09-05T15:47:02.202Z,32.13
2018-09-05T15:49:31.563Z,31.31
2018-09-05T15:52:00.975Z,31.99
2018-09-05T15:54:30.362Z,31.20
2018-09-05T15:56:59.770Z,32.24
2018-09-05T15:59:29.137Z,31.69
2018-09-05T16:01:58.703Z,32.35
2018-09-05T16:04:28.071Z,31.91
2018-09-05T16:06:57.446Z,31.33
2018-09-05T16:09:26.883Z,31.25
2018-09-05T16:11:56.312Z,32.22
2018-09-05T16:14:25.712Z,31.97
2018-09-05T16:16:55.062Z,31.76
2018-09-05T16:19:24.486Z,32.27
2018-09-05T16:21:53.872Z,32.14
2018-09-05T16:24:23.231Z,30.74
2018-09-05T16:26:52.594Z,30.21
2018-09-05T16:29:23.418Z,30.67
2018-09-05T16:31:52.929Z,30.66
2018-09-05T16:34:22.522Z,30.76
2018-09-05T16:36:52.245Z,30.41
2018-09-05T16:39:21.514Z,28.59
2018-09-05T16:41:50.784Z,27.76
2018-09-05T16:44:20.116Z,27.79
2018-09-05T16:46:49.360Z,26.49
2018-09-05T16:49:18.536Z,26.48
2018-09-05T16:51:47.738Z,26.24
2018-09-05T16:54:16.927Z,25.84
2018-09-05T16:56:46.125Z,25.81
2018-09-05T16:59:15.322Z,25.73
2018-09-05T17:01:44.510Z,25.53
2018-09-05T17:04:13.719Z,25.60
2018-09-05T17:06:42.887Z,25.49
2018-09-05T17:09:13.238Z,25.58
2018-09-05T17:11:42.423Z,25.53
2018-09-05T17:14:11.608Z,25.34
2018-09-05T17:16:40.814Z,25.18
2018-09-05T17:19:10.231Z,25.03
2018-09-05T17:21:39.441Z,24.82
2018-09-05T17:24:08.647Z,24.60
2018-09-05T17:26:37.825Z,24.47
2018-09-05T17:29:07.432Z,24.35
2018-09-05T17:31:36.892Z,24.08
2018-09-05T17:34:06.758Z,24.05
2018-09-05T17:36:36.534Z,24.00
2018-09-05T17:39:09.818Z,23.71
2018-09-05T17:41:39.666Z,23.53
2018-09-05T17:44:09.744Z,23.50
2018-09-05T17:46:39.140Z,23.33
2018-09-05T17:49:08.804Z,23.28
2018-09-05T17:51:38.016Z,23.16
2018-09-05T17:54:07.345Z,23.06
2018-09-05T17:56:36.637Z,22.88
2018-09-05T17:59:05.996Z,22.77
2018-09-05T18:01:35.181Z,22.73
2018-09-05T18:04:04.333Z,22.63
2018-09-05T18:06:33.503Z,22.55
2018-09-05T18:09:03.832Z,22.51
2018-09-05T18:11:33.035Z,22.42
2018-09-05T18:14:02.226Z,22.36
2018-09-05T18:16:31.557Z,22.31
2018-09-05T18:19:00.819Z,22.20
2018-09-05T18:21:30.001Z,22.19
2018-09-05T18:23:59.177Z,22.20
2018-09-05T18:26:29.231Z,22.16
2018-09-05T18:28:58.750Z,22.15
2018-09-05T18:31:28.005Z,22.07
2018-09-05T18:33:57.464Z,22.03
2018-09-05T18:36:26.615Z,21.96
2018-09-05T18:38:55.854Z,21.95
2018-09-05T18:41:25.119Z,21.89
2018-09-05T18:43:54.412Z,21.89
2018-09-05T18:46:23.671Z,21.85
2018-09-05T18:48:52.923Z,21.83
2018-09-05T18:51:22.114Z,21.75
2018-09-05T18:53:51.358Z,21.69
2018-09-05T18:56:20.582Z,21.64
2018-09-05T18:58:49.842Z,21.64
2018-09-05T19:01:19.087Z,21.61
2018-09-05T19:03:48.562Z,21.59
2018-09-05T19:06:17.902Z,21.51
2018-09-05T19:08:47.318Z,21.48
2018-09-05T19:11:17.080Z,21.37
2018-09-05T19:13:46.575Z,21.23
2018-09-05T19:16:16.093Z,21.13
2018-09-05T19:18:45.489Z,21.07
2018-09-05T19:21:14.852Z,20.99
2018-09-05T19:23:44.334Z,21.00
2018-09-05T19:26:13.692Z,20.91
2018-09-05T19:28:43.094Z,20.76
2018-09-05T19:31:12.468Z,20.62
2018-09-05T19:33:41.829Z,20.59
2018-09-05T19:36:11.241Z,20.56
2018-09-05T19:38:40.538Z,20.51
2018-09-05T19:41:09.926Z,20.42
2018-09-05T19:43:39.449Z,20.43
2018-09-05T19:46:08.990Z,19.95
2018-09-05T19:48:38.374Z,19.64
2018-09-05T19:51:07.838Z,19.54
2018-09-05T19:53:37.415Z,19.54
2018-09-05T19:56:06.907Z,19.53
2018-09-05T19:58:36.414Z,19.49
2018-09-05T20:01:05.841Z,19.52
2018-09-05T20:03:35.302Z,19.66
2018-09-05T20:06:04.958Z,19.61
2018-09-05T20:08:34.325Z,19.55
2018-09-05T20:11:03.629Z,19.52
2018-09-05T20:13:33.024Z,19.54
2018-09-05T20:16:02.358Z,19.56
2018-09-05T20:18:31.769Z,19.52
2018-09-05T20:21:01.348Z,19.52
2018-09-05T20:23:30.776Z,19.45
2018-09-05T20:26:00.099Z,19.65
2018-09-05T20:28:29.454Z,19.87
2018-09-05T20:30:58.862Z,19.80
2018-09-05T20:33:28.087Z,19.71
2018-09-05T20:35:57.250Z,19.80
2018-09-05T20:38:26.427Z,19.92
2018-09-05T20:40:55.661Z,20.13
2018-09-05T20:43:25.064Z,20.11
2018-09-05T20:45:54.272Z,19.99
2018-09-05T20:48:23.574Z,19.95
2018-09-05T20:50:52.819Z,19.88
2018-09-05T20:53:22.070Z,19.83
2018-09-05T20:55:51.346Z,19.76
2018-09-05T20:58:20.593Z,19.67
2018-09-05T21:00:49.982Z,19.61
2018-09-05T21:03:19.204Z,19.56
2018-09-05T21:05:48.441Z,19.57
2018-09-05T21:08:17.629Z,19.52
2018-09-05T21:10:46.806Z,19.53
2018-09-05T21:13:15.976Z,19.51
2018-09-05T21:15:45.140Z,19.48
2018-09-05T21:18:14.399Z,19.42
2018-09-05T21:20:43.485Z,19.40
2018-09-05T21:23:12.681Z,19.33
2018-09-05T21:25:41.861Z,19.41
2018-09-05T21:28:11.028Z,19.44
2018-09-05T21:30:40.189Z,19.53
2018-09-05T21:33:09.369Z,19.48
2018-09-05T21:35:38.532Z,19.42
2018-09-05T21:38:07.720Z,19.35
2018-09-05T21:40:36.879Z,19.34
2018-09-05T21:43:06.055Z,19.29
2018-09-05T21:45:35.231Z,19.20
2018-09-05T21:48:04.507Z,19.20
2018-09-05T21:50:33.669Z,19.14
2018-09-05T21:53:03.472Z,19.07
2018-09-05T21:55:33.064Z,18.89
2018-09-05T21:58:02.248Z,18.83
2018-09-05T22:00:31.440Z,18.75
2018-09-05T22:03:00.681Z,18.70
2018-09-05T22:05:29.852Z,18.58
2018-09-05T22:07:59.032Z,18.48
2018-09-05T22:10:28.196Z,18.40
2018-09-05T22:12:57.368Z,18.28
2018-09-05T22:15:26.546Z,18.23
2018-09-05T22:17:55.740Z,18.18
2018-09-05T22:20:24.904Z,18.12
2018-09-05T22:22:54.084Z,18.08
2018-09-05T22:25:23.251Z,17.97
2018-09-05T22:27:52.425Z,17.87
2018-09-05T22:30:21.621Z,17.97
2018-09-05T22:32:50.804Z,17.98
2018-09-05T22:35:19.962Z,17.94
2018-09-05T22:37:49.136Z,17.88
2018-09-05T22:40:18.317Z,17.98
2018-09-05T22:44:06.652Z,17.92
2018-09-05T22:46:53.108Z,17.75
2018-09-05T22:53:22.198Z,17.77
2018-09-05T22:56:27.430Z,17.83
2018-09-05T22:59:42.614Z,17.85
2018-09-05T23:02:33.912Z,17.78
2018-09-05T23:08:25.699Z,17.71
2018-09-05T23:12:18.872Z,17.70
2018-09-05T23:15:08.914Z,17.61
2018-09-05T23:20:03.847Z,17.59
2018-09-05T23:22:50.011Z,17.42
2018-09-05T23:25:19.181Z,17.43
2018-09-05T23:27:48.342Z,17.41
2018-09-05T23:30:17.513Z,17.21
2018-09-05T23:32:46.706Z,17.05
2018-09-05T23:35:15.903Z,16.87
2018-09-05T23:37:45.069Z,16.82
2018-09-05T23:40:14.248Z,16.70
2018-09-05T23:42:43.410Z,16.61
2018-09-05T23:45:12.582Z,16.48
2018-09-05T23:47:41.765Z,16.39
2018-09-05T23:50:10.938Z,16.44
2018-09-05T23:52:40.110Z,16.34
2018-09-05T23:55:09.267Z,16.35
2018-09-05T23:57:38.455Z,16.42
